Time;durP1;ratioP1;P1;durP2;ratioP2;P2;SDS_P1;SDS_P2;PMS_P1;PMS_P2;Temp;Humidity;BMP_temperature;BMP_pressure;BME280_temperature;BME280_humidity;BME280_pressure;Samples;Min_cycle;Max_cycle;Signal;HPM_P1;HPM_P2
2022/08/27 00:01:33;;;;;;;9.27;4.05;;;14.90;99.90;;;;;;5036410;28;20054;-88
2022/08/27 00:03:59;;;;;;;11.23;4.38;;;14.90;99.90;;;;;;5067074;28;20518;-89
2022/08/27 00:06:25;;;;;;;8.93;3.88;;;14.90;99.90;;;;;;5035222;28;20075;-88
2022/08/27 00:08:52;;;;;;;12.45;4.43;;;14.90;99.90;;;;;;5075880;28;20088;-89
2022/08/27 00:11:20;;;;;;;9.43;4.10;;;14.80;99.90;;;;;;5032333;28;20036;-88
2022/08/27 00:13:46;;;;;;;8.40;4.00;;;14.90;99.90;;;;;;5062156;28;21024;-88
2022/08/27 00:16:14;;;;;;;7.93;3.50;;;14.90;99.90;;;;;;5062534;28;20032;-89
2022/08/27 00:18:43;;;;;;;7.35;3.35;;;14.80;99.90;;;;;;5062144;28;20447;-88
2022/08/27 00:21:09;;;;;;;14.30;3.50;;;14.80;99.90;;;;;;5045436;28;20400;-88
2022/08/27 00:23:35;;;;;;;6.30;3.53;;;14.90;99.90;;;;;;5058579;28;20040;-89
2022/08/27 00:26:02;;;;;;;7.70;3.22;;;14.90;99.90;;;;;;5033021;28;20591;-88
2022/08/27 00:28:32;;;;;;;6.47;3.42;;;14.90;99.90;;;;;;5047804;28;20400;-88
2022/08/27 00:30:58;;;;;;;6.65;2.90;;;14.90;99.90;;;;;;5046620;28;20515;-88
2022/08/27 00:33:25;;;;;;;5.82;3.28;;;14.90;99.90;;;;;;5045660;28;20127;-89
2022/08/27 00:35:51;;;;;;;7.35;3.40;;;14.90;99.90;;;;;;5027246;28;20033;-88
2022/08/27 00:38:18;;;;;;;5.32;3.20;;;14.80;99.90;;;;;;5027396;28;20041;-89
2022/08/27 00:40:44;;;;;;;10.52;3.15;;;14.80;99.90;;;;;;5044305;28;20098;-88
2022/08/27 00:43:10;;;;;;;7.13;3.25;;;14.80;99.90;;;;;;5027801;28;20041;-87
2022/08/27 00:45:42;;;;;;;6.85;3.25;;;14.70;99.90;;;;;;5041045;28;20062;-88
2022/08/27 00:48:11;;;;;;;4.80;3.05;;;14.70;99.90;;;;;;5049117;28;20036;-89
2022/08/27 00:50:46;;;;;;;4.90;2.88;;;14.70;99.90;;;;;;5049764;28;20514;-88
2022/08/27 00:53:15;;;;;;;8.00;2.97;;;14.60;99.90;;;;;;5048309;28;20044;-89
2022/08/27 00:55:45;;;;;;;7.32;3.35;;;14.60;99.90;;;;;;5031699;28;20037;-88
2022/08/27 00:58:27;;;;;;;5.55;3.40;;;14.60;99.90;;;;;;5024081;28;20052;-89
2022/08/27 01:00:53;;;;;;;8.52;3.60;;;14.50;99.90;;;;;;5077637;28;20559;-89
2022/08/27 01:03:19;;;;;;;8.25;3.70;;;14.60;99.90;;;;;;5079268;28;20352;-88
2022/08/27 01:05:47;;;;;;;9.40;3.78;;;14.50;99.90;;;;;;5030292;28;20031;-88
2022/08/27 01:08:18;;;;;;;6.93;3.60;;;14.50;99.90;;;;;;5028525;28;20045;-88
2022/08/27 01:10:45;;;;;;;6.68;3.15;;;14.50;99.90;;;;;;5050002;28;20143;-89
2022/08/27 01:13:16;;;;;;;6.80;3.80;;;14.60;99.90;;;;;;5062477;28;20040;-89
2022/08/27 01:15:42;;;;;;;8.35;3.42;;;14.50;99.90;;;;;;5029223;28;20055;-89
2022/08/27 01:18:12;;;;;;;6.57;3.55;;;14.60;99.90;;;;;;5075659;28;20036;-89
2022/08/27 01:20:50;;;;;;;6.55;3.20;;;14.50;99.90;;;;;;5060942;28;20458;-88
2022/08/27 01:23:34;;;;;;;8.00;3.38;;;14.60;99.90;;;;;;5052276;28;20041;-89
2022/08/27 01:26:00;;;;;;;7.22;3.67;;;14.60;99.90;;;;;;5023914;28;20033;-88
2022/08/27 01:28:28;;;;;;;6.78;3.42;;;14.60;99.90;;;;;;5054817;28;20044;-89
2022/08/27 01:30:54;;;;;;;6.55;3.55;;;14.60;99.90;;;;;;5024493;28;20437;-89
2022/08/27 01:33:21;;;;;;;7.97;3.60;;;14.60;99.90;;;;;;5027009;28;20071;-88
2022/08/27 01:35:50;;;;;;;6.53;3.50;;;14.60;99.90;;;;;;5043759;28;20044;-88
2022/08/27 01:38:16;;;;;;;8.05;3.60;;;14.60;99.90;;;;;;5069313;28;20132;-88
2022/08/27 01:40:43;;;;;;;9.32;3.42;;;14.60;99.90;;;;;;5042956;28;20342;-88
2022/08/27 01:43:09;;;;;;;6.30;3.65;;;14.60;99.90;;;;;;5043007;28;20336;-87
2022/08/27 01:45:38;;;;;;;6.40;3.45;;;14.60;99.90;;;;;;5059479;28;20571;-89
2022/08/27 01:48:06;;;;;;;7.05;3.38;;;14.60;99.90;;;;;;5073595;28;20033;-88
2022/08/27 01:50:37;;;;;;;8.38;3.60;;;14.70;99.90;;;;;;5074244;28;20045;-89
2022/08/27 01:53:09;;;;;;;5.97;3.70;;;14.70;99.90;;;;;;5059757;28;20036;-90
2022/08/27 01:55:36;;;;;;;8.73;3.63;;;14.70;99.90;;;;;;5044328;28;20179;-88
2022/08/27 01:58:02;;;;;;;7.97;3.95;;;14.70;99.90;;;;;;5056229;28;20048;-89
2022/08/27 02:00:31;;;;;;;6.30;3.33;;;14.70;99.90;;;;;;5030637;28;20041;-88
2022/08/27 02:02:58;;;;;;;8.43;3.63;;;14.70;99.90;;;;;;5047452;28;20463;-89
2022/08/27 02:05:26;;;;;;;10.10;3.70;;;14.60;99.90;;;;;;5059731;28;20035;-89
2022/08/27 02:07:53;;;;;;;7.70;3.40;;;14.70;99.90;;;;;;5030079;28;20069;-89
2022/08/27 02:10:23;;;;;;;5.53;3.60;;;14.60;99.90;;;;;;5032456;28;20123;-89
2022/08/27 02:12:49;;;;;;;9.00;3.85;;;14.60;99.90;;;;;;5028686;28;20043;-88
2022/08/27 02:15:16;;;;;;;9.02;3.65;;;14.60;99.90;;;;;;5029780;28;20041;-88
2022/08/27 02:17:42;;;;;;;6.80;3.63;;;14.60;99.90;;;;;;5023588;28;20071;-88
2022/08/27 02:20:09;;;;;;;8.50;4.00;;;14.50;99.90;;;;;;5083384;28;20048;-88
2022/08/27 02:22:36;;;;;;;5.20;3.47;;;14.50;99.90;;;;;;5024722;28;20337;-88
2022/08/27 02:25:02;;;;;;;7.95;3.67;;;14.50;99.90;;;;;;5025080;28;20553;-89
2022/08/27 02:27:28;;;;;;;8.15;4.10;;;14.40;99.90;;;;;;5026003;28;20033;-88
2022/08/27 02:29:54;;;;;;;6.53;4.10;;;14.40;99.90;;;;;;5078526;28;20101;-88
2022/08/27 02:32:20;;;;;;;4.72;3.53;;;14.40;99.90;;;;;;5054699;28;20501;-89
2022/08/27 02:34:46;;;;;;;5.07;4.00;;;14.30;99.90;;;;;;5051033;28;20132;-88
2022/08/27 02:37:12;;;;;;;7.20;3.95;;;14.30;99.90;;;;;;5057572;28;20155;-88
2022/08/27 02:39:38;;;;;;;8.23;3.83;;;14.30;99.90;;;;;;5053751;28;20490;-89
2022/08/27 02:42:03;;;;;;;8.88;4.10;;;14.20;99.90;;;;;;5027721;28;20044;-88
2022/08/27 02:44:30;;;;;;;5.95;4.30;;;14.10;99.90;;;;;;5060391;28;20071;-88
2022/08/27 02:46:56;;;;;;;10.68;4.07;;;14.10;99.90;;;;;;5025728;28;20044;-88
2022/08/27 02:49:22;;;;;;;8.25;4.45;;;14.10;99.90;;;;;;5053644;28;20044;-88
2022/08/27 02:51:53;;;;;;;6.93;4.25;;;14.00;99.90;;;;;;5042011;28;20029;-88
2022/08/27 02:54:18;;;;;;;8.43;4.32;;;13.90;99.90;;;;;;5039405;28;20040;-89
2022/08/27 02:56:44;;;;;;;9.32;4.40;;;13.90;99.90;;;;;;5041418;28;20465;-89
2022/08/27 02:59:10;;;;;;;6.55;4.10;;;13.90;99.90;;;;;;5028423;28;20044;-88
2022/08/27 03:01:35;;;;;;;9.32;3.92;;;13.90;99.90;;;;;;5030710;28;20052;-88
2022/08/27 03:04:01;;;;;;;8.73;3.78;;;13.90;99.90;;;;;;5052591;28;20044;-88
2022/08/27 03:06:27;;;;;;;8.15;4.03;;;13.90;99.90;;;;;;5073431;28;20167;-88
2022/08/27 03:08:53;;;;;;;8.45;3.92;;;13.80;99.90;;;;;;5077484;28;20056;-88
2022/08/27 03:11:22;;;;;;;7.18;4.25;;;13.80;99.90;;;;;;5034979;28;20051;-88
2022/08/27 03:13:47;;;;;;;6.82;4.20;;;13.90;99.90;;;;;;5034533;28;20041;-89
2022/08/27 03:16:14;;;;;;;10.23;3.58;;;13.80;99.90;;;;;;5054085;28;20492;-88
2022/08/27 03:18:39;;;;;;;6.28;3.67;;;13.70;99.90;;;;;;5032290;28;20553;-88
2022/08/27 03:21:07;;;;;;;5.75;3.58;;;13.70;99.90;;;;;;5074547;28;20484;-88
2022/08/27 03:23:33;;;;;;;12.18;4.18;;;13.60;99.90;;;;;;5032610;28;20037;-88
2022/08/27 03:26:01;;;;;;;8.38;3.90;;;13.70;99.90;;;;;;5064799;28;20043;-88
2022/08/27 03:28:30;;;;;;;8.73;4.18;;;13.60;99.90;;;;;;5018302;28;20073;-88
2022/08/27 03:31:00;;;;;;;7.65;3.92;;;13.60;99.90;;;;;;5029652;28;20048;-88
2022/08/27 03:33:28;;;;;;;8.48;4.18;;;13.60;99.90;;;;;;5050012;28;20492;-88
2022/08/27 03:35:54;;;;;;;6.10;4.40;;;13.50;99.90;;;;;;5073937;28;20544;-88
2022/08/27 03:38:21;;;;;;;7.55;4.20;;;13.50;99.90;;;;;;5062688;28;20119;-89
2022/08/27 03:40:47;;;;;;;10.57;4.32;;;13.50;99.90;;;;;;5037026;28;20037;-88
2022/08/27 03:43:14;;;;;;;6.70;4.57;;;13.50;99.90;;;;;;5072561;28;20215;-89
2022/08/27 03:45:42;;;;;;;5.47;3.88;;;13.40;99.90;;;;;;5074981;28;20040;-88
2022/08/27 03:48:09;;;;;;;6.25;3.72;;;13.40;99.90;;;;;;5069612;28;20037;-88
2022/08/27 03:50:40;;;;;;;6.47;3.65;;;13.50;99.90;;;;;;5028932;28;20172;-88
2022/08/27 03:53:06;;;;;;;8.43;3.67;;;13.50;99.90;;;;;;5081984;28;20143;-88
2022/08/27 03:55:32;;;;;;;5.63;3.90;;;13.50;99.90;;;;;;5052433;28;20522;-88
2022/08/27 03:57:57;;;;;;;8.40;4.20;;;13.40;99.90;;;;;;5061713;28;20071;-89
2022/08/27 04:00:23;;;;;;;7.43;3.70;;;13.50;99.90;;;;;;5077963;28;20049;-88
2022/08/27 04:02:50;;;;;;;7.50;4.20;;;13.50;99.90;;;;;;5049728;28;20031;-88
2022/08/27 04:05:16;;;;;;;7.13;3.90;;;13.50;99.90;;;;;;5044732;28;20045;-89
2022/08/27 04:07:42;;;;;;;7.43;3.70;;;13.40;99.90;;;;;;5046161;28;20064;-89
2022/08/27 04:10:10;;;;;;;6.75;3.90;;;13.40;99.90;;;;;;5056868;28;20052;-88
2022/08/27 04:12:37;;;;;;;6.80;4.05;;;13.20;99.90;;;;;;5062575;28;20091;-88
2022/08/27 04:15:04;;;;;;;9.70;4.28;;;13.30;99.90;;;;;;5050479;28;20101;-88
2022/08/27 04:17:30;;;;;;;7.32;4.22;;;13.40;99.90;;;;;;5067017;28;20081;-87
2022/08/27 04:19:55;;;;;;;5.88;4.22;;;13.40;99.90;;;;;;5027946;28;20457;-88
2022/08/27 04:22:25;;;;;;;7.50;4.80;;;13.40;99.90;;;;;;5042600;28;20039;-87
2022/08/27 04:24:50;;;;;;;7.65;4.38;;;13.50;99.90;;;;;;5065128;28;20345;-88
2022/08/27 04:27:17;;;;;;;7.95;4.53;;;13.60;99.90;;;;;;5054290;28;20344;-87
2022/08/27 04:29:43;;;;;;;8.90;4.78;;;13.50;99.90;;;;;;5031256;28;20040;-88
2022/08/27 04:32:09;;;;;;;7.50;4.70;;;13.50;99.90;;;;;;5076901;28;20049;-87
2022/08/27 04:34:35;;;;;;;8.65;4.53;;;13.50;99.90;;;;;;5029140;28;20071;-88
2022/08/27 04:37:02;;;;;;;7.88;4.30;;;13.40;99.90;;;;;;5022720;28;20038;-88
2022/08/27 04:39:29;;;;;;;9.38;4.25;;;13.40;99.90;;;;;;5047381;28;20068;-88
2022/08/27 04:41:57;;;;;;;9.32;3.97;;;13.40;99.90;;;;;;5059732;28;20352;-88
2022/08/27 04:44:26;;;;;;;6.70;4.20;;;13.30;99.90;;;;;;5035975;28;20488;-88
2022/08/27 04:46:58;;;;;;;5.88;4.25;;;13.30;99.90;;;;;;5075003;28;20245;-87
2022/08/27 04:49:25;;;;;;;9.93;4.00;;;13.20;99.90;;;;;;5033221;28;20055;-87
2022/08/27 04:51:51;;;;;;;6.18;3.83;;;13.10;99.90;;;;;;5056050;28;20393;-88
2022/08/27 04:54:16;;;;;;;10.13;3.95;;;13.20;99.90;;;;;;5018463;28;20419;-89
2022/08/27 04:56:42;;;;;;;7.70;4.03;;;13.20;99.90;;;;;;5053763;28;20184;-88
2022/08/27 04:59:08;;;;;;;7.53;3.92;;;13.20;99.90;;;;;;5052126;28;20458;-88
2022/08/27 05:01:36;;;;;;;10.75;4.47;;;13.20;99.90;;;;;;5071117;28;20133;-89
2022/08/27 05:04:03;;;;;;;7.57;4.05;;;13.20;99.90;;;;;;5035247;28;20480;-88
2022/08/27 05:06:28;;;;;;;8.77;4.47;;;13.30;99.90;;;;;;5028436;28;20088;-88
2022/08/27 05:08:55;;;;;;;8.52;3.92;;;13.30;99.90;;;;;;5082862;28;20120;-88
2022/08/27 05:11:22;;;;;;;7.78;4.05;;;13.20;99.90;;;;;;5036080;28;20049;-88
2022/08/27 05:13:49;;;;;;;9.40;4.28;;;13.40;99.90;;;;;;5029398;28;20032;-88
2022/08/27 05:16:18;;;;;;;6.20;4.32;;;13.40;99.90;;;;;;5066929;28;20075;-88
2022/08/27 05:18:45;;;;;;;6.25;4.00;;;13.40;99.90;;;;;;5059102;28;20044;-87
2022/08/27 05:21:17;;;;;;;9.50;4.53;;;13.50;99.90;;;;;;5069926;28;20036;-87
2022/08/27 05:23:43;;;;;;;5.40;4.10;;;13.60;99.90;;;;;;5038963;28;20045;-88
2022/08/27 05:26:09;;;;;;;6.97;4.47;;;13.70;99.90;;;;;;5029507;28;20044;-88
2022/08/27 05:28:34;;;;;;;6.13;4.45;;;13.70;99.90;;;;;;5032359;28;20060;-87
2022/08/27 05:31:06;;;;;;;6.38;3.90;;;13.80;99.90;;;;;;5046295;28;20124;-88
2022/08/27 05:33:33;;;;;;;9.07;3.97;;;13.90;99.90;;;;;;5063845;28;20110;-87
2022/08/27 05:35:59;;;;;;;10.50;4.75;;;13.90;99.90;;;;;;5027847;28;20099;-87
2022/08/27 05:38:28;;;;;;;4.72;3.80;;;14.00;99.90;;;;;;5052878;28;20039;-88
2022/08/27 05:41:07;;;;;;;8.20;4.40;;;14.00;99.90;;;;;;5031370;28;20094;-88
2022/08/27 05:43:34;;;;;;;5.22;3.80;;;14.10;99.90;;;;;;5043972;28;20041;-86
2022/08/27 05:46:04;;;;;;;7.78;3.78;;;14.20;99.90;;;;;;5055036;28;20377;-88
2022/08/27 05:48:31;;;;;;;6.00;3.72;;;14.20;99.90;;;;;;5020026;28;20048;-87
2022/08/27 05:50:57;;;;;;;5.65;3.97;;;14.30;99.90;;;;;;5056238;28;20123;-88
2022/08/27 05:53:23;;;;;;;5.18;4.10;;;14.40;99.90;;;;;;5066716;28;20131;-87
2022/08/27 05:55:48;;;;;;;6.28;4.03;;;14.40;99.90;;;;;;5061986;28;20049;-88
2022/08/27 06:01:05;;;;;;;5.35;3.67;;;14.50;99.90;;;;;;5078570;28;20242;-88
2022/08/27 06:03:34;;;;;;;6.60;3.70;;;14.60;99.90;;;;;;5057488;28;20480;-87
2022/08/27 06:06:06;;;;;;;6.50;3.97;;;14.70;99.90;;;;;;5052956;28;20093;-88
2022/08/27 06:08:32;;;;;;;6.35;3.88;;;14.90;99.90;;;;;;5055971;28;20044;-89
2022/08/27 06:11:00;;;;;;;7.35;3.72;;;14.90;99.90;;;;;;5038558;28;20053;-88
2022/08/27 06:13:27;;;;;;;5.93;3.88;;;15.10;99.90;;;;;;5059507;28;20069;-87
2022/08/27 06:16:14;;;;;;;5.07;3.10;;;15.40;99.90;;;;;;5062298;28;20523;-88
2022/08/27 06:18:42;;;;;;;4.35;3.40;;;15.50;99.90;;;;;;5029309;28;20040;-88
2022/08/27 06:21:08;;;;;;;6.57;3.42;;;15.70;99.90;;;;;;5041919;28;20500;-88
2022/08/27 06:23:34;;;;;;;7.13;3.03;;;15.70;99.90;;;;;;5071806;28;20043;-88
2022/08/27 06:26:00;;;;;;;8.30;3.45;;;15.80;99.90;;;;;;5045145;28;20036;-88
2022/08/27 06:28:30;;;;;;;14.07;3.55;;;15.80;99.90;;;;;;5039396;28;20039;-88
2022/08/27 06:31:05;;;;;;;4.78;3.05;;;16.00;94.10;;;;;;5023668;28;20037;-88
2022/08/27 06:33:31;;;;;;;5.80;2.65;;;16.10;99.90;;;;;;5027373;28;20106;-88
2022/08/27 06:36:06;;;;;;;6.47;3.22;;;16.20;1.00;;;;;;5047876;28;20041;-88
2022/08/27 06:38:33;;;;;;;10.02;3.10;;;16.40;1.00;;;;;;5024296;28;20048;-87
2022/08/27 06:40:59;;;;;;;7.28;3.25;;;16.50;99.90;;;;;;5069922;28;20586;-88
2022/08/27 06:43:26;;;;;;;5.85;2.97;;;16.60;99.90;;;;;;5034312;28;20135;-88
2022/08/27 06:45:52;;;;;;;6.10;2.70;;;16.70;99.90;;;;;;5077870;28;20032;-88
2022/08/27 06:48:18;;;;;;;6.20;2.72;;;16.70;93.80;;;;;;5061583;28;20274;-88
2022/08/27 06:50:45;;;;;;;6.20;3.00;;;16.80;1.00;;;;;;5027678;28;20252;-88
2022/08/27 06:53:11;;;;;;;5.78;2.53;;;17.00;99.90;;;;;;5030326;28;20071;-87
2022/08/27 06:55:46;;;;;;;5.57;2.60;;;17.20;1.00;;;;;;5082177;28;20036;-87
2022/08/27 06:58:12;;;;;;;5.97;2.42;;;17.20;99.90;;;;;;5025638;28;20461;-87
2022/08/27 07:00:39;;;;;;;6.07;2.60;;;17.50;99.90;;;;;;5067076;28;20049;-87
2022/08/27 07:03:05;;;;;;;6.20;2.33;;;17.50;50.80;;;;;;5046739;28;20048;-87
2022/08/27 07:05:32;;;;;;;5.32;2.38;;;17.50;99.90;;;;;;5056675;28;20037;-87
2022/08/27 07:08:02;;;;;;;4.60;2.22;;;17.60;99.90;;;;;;5078503;28;20056;-87
2022/08/27 07:10:30;;;;;;;8.27;2.40;;;17.80;99.90;;;;;;5060451;28;20044;-88
2022/08/27 07:12:56;;;;;;;5.95;2.13;;;17.90;99.90;;;;;;5028915;28;20068;-87
2022/08/27 07:15:22;;;;;;;5.85;2.10;;;18.10;99.30;;;;;;5061874;28;20128;-87
2022/08/27 07:17:48;;;;;;;6.25;2.63;;;18.20;99.90;;;;;;5021656;28;20150;-87
2022/08/27 07:20:18;;;;;;;6.72;2.42;;;18.20;99.90;;;;;;5048757;28;20079;-86
2022/08/27 07:22:44;;;;;;;6.07;2.28;;;18.20;26.50;;;;;;5061796;28;20032;-88
2022/08/27 07:25:14;;;;;;;4.35;2.10;;;18.20;99.90;;;;;;5041536;28;20036;-88
2022/08/27 07:27:40;;;;;;;6.13;2.00;;;18.30;99.90;;;;;;5062921;28;20534;-88
2022/08/27 07:30:11;;;;;;;5.82;2.53;;;18.30;99.90;;;;;;5074665;28;20400;-87
2022/08/27 07:32:37;;;;;;;8.40;2.47;;;18.50;99.90;;;;;;5048101;28;20404;-88
2022/08/27 07:35:08;;;;;;;5.82;2.17;;;18.60;99.90;;;;;;5020092;28;20066;-87
2022/08/27 07:37:38;;;;;;;5.97;2.00;;;18.70;99.90;;;;;;5049817;28;20044;-87
2022/08/27 07:40:06;;;;;;;7.25;2.00;;;18.90;1.00;;;;;;5033739;28;20573;-87
2022/08/27 07:45:16;;;;;;;4.22;1.92;;;19.10;1.00;;;;;;5062859;28;20434;-87
2022/08/27 07:47:42;;;;;;;5.60;2.08;;;19.30;99.90;;;;;;5053250;28;20124;-87
2022/08/27 07:50:08;;;;;;;4.72;1.92;;;19.80;99.90;;;;;;5017317;28;20041;-89
2022/08/27 07:52:34;;;;;;;10.00;2.00;;;19.50;99.90;;;;;;5048744;28;20051;-88
2022/08/27 07:55:00;;;;;;;8.73;2.10;;;19.20;1.00;;;;;;5046031;28;20040;-87
2022/08/27 07:57:26;;;;;;;5.57;1.77;;;19.20;99.90;;;;;;5063695;28;20049;-87
2022/08/27 07:59:52;;;;;;;4.78;1.50;;;19.10;1.00;;;;;;5028667;28;20137;-88
2022/08/27 08:02:18;;;;;;;6.10;2.03;;;19.00;99.90;;;;;;5023303;28;20560;-87
2022/08/27 08:04:44;;;;;;;5.93;1.90;;;19.20;99.90;;;;;;5060740;28;20136;-87
2022/08/27 08:07:10;;;;;;;6.85;1.92;;;19.90;99.90;;;;;;5033937;28;20104;-87
2022/08/27 08:09:36;;;;;;;5.47;1.55;;;20.00;19.20;;;;;;5033927;28;20464;-87
2022/08/27 08:12:02;;;;;;;6.90;1.52;;;19.80;99.90;;;;;;5025591;28;20338;-88
2022/08/27 08:14:30;;;;;;;4.93;1.85;;;19.50;1.00;;;;;;5015842;28;20106;-88
2022/08/27 08:17:01;;;;;;;5.80;2.15;;;19.30;8.60;;;;;;5058356;28;20044;-88
2022/08/27 08:19:28;;;;;;;7.78;1.65;;;19.10;99.90;;;;;;5061517;28;20030;-88
2022/08/27 08:21:53;;;;;;;6.53;1.50;;;19.10;99.90;;;;;;5015809;28;20041;-87
2022/08/27 08:24:20;;;;;;;5.78;1.88;;;19.10;99.90;;;;;;5053814;28;20441;-87
2022/08/27 08:26:45;;;;;;;3.58;1.60;;;19.30;1.00;;;;;;5051323;28;20146;-86
2022/08/27 08:29:11;;;;;;;6.43;1.80;;;19.30;1.00;;;;;;5028090;28;20428;-87
2022/08/27 08:31:37;;;;;;;7.85;1.67;;;19.40;1.00;;;;;;5066242;28;20110;-88
2022/08/27 08:34:03;;;;;;;6.00;1.58;;;19.30;99.90;;;;;;5036100;28;20040;-88
2022/08/27 08:36:28;;;;;;;5.90;1.88;;;19.50;1.00;;;;;;5054530;28;20045;-87
2022/08/27 08:38:54;;;;;;;6.15;1.75;;;19.40;1.00;;;;;;5042698;28;20502;-87
2022/08/27 08:41:42;;;;;;;3.72;1.27;;;19.40;1.00;;;;;;5036322;28;20129;-87
2022/08/27 08:44:34;;;;;;;50.33;5.18;;;19.40;1.00;;;;;;5027424;28;20033;-90
2022/08/27 08:47:18;;;;;;;7.28;1.42;;;19.50;26.30;;;;;;5069387;28;20033;-87
2022/08/27 08:50:02;;;;;;;11.77;1.97;;;19.50;99.90;;;;;;5056749;28;20048;-87
2022/08/27 08:52:53;;;;;;;6.07;1.52;;;19.50;99.90;;;;;;5047328;28;20279;-88
2022/08/27 08:55:43;;;;;;;3.67;1.13;;;19.50;99.90;;;;;;5059794;28;20040;-87
2022/08/27 08:58:31;;;;;;;5.90;1.48;;;19.70;99.90;;;;;;5061998;28;20478;-86
2022/08/27 09:00:59;;;;;;;3.80;1.17;;;19.70;99.90;;;;;;5067713;28;20114;-87
2022/08/27 09:03:28;;;;;;;6.20;1.63;;;19.70;99.90;;;;;;5055096;28;20729;-86
2022/08/27 09:06:31;;;;;;;5.85;1.50;;;19.90;99.90;;;;;;5022259;28;20044;-85
2022/08/27 09:09:19;;;;;;;6.22;1.77;;;19.90;99.90;;;;;;5015926;28;20254;-83
2022/08/27 09:11:48;;;;;;;5.65;1.90;;;20.00;99.90;;;;;;5013520;28;20504;-84
2022/08/27 09:14:44;;;;;;;4.82;1.52;;;20.30;52.50;;;;;;5046183;28;20309;-85
2022/08/27 09:17:10;;;;;;;5.22;1.38;;;20.70;99.90;;;;;;5023418;28;20041;-84
2022/08/27 09:19:35;;;;;;;6.18;1.60;;;20.60;1.00;;;;;;5077528;28;20029;-84
2022/08/27 09:22:06;;;;;;;3.75;1.48;;;20.40;80.50;;;;;;5068589;28;20133;-84
2022/08/27 09:25:04;;;;;;;8.73;2.10;;;20.70;1.00;;;;;;5077162;28;20051;-84
2022/08/27 09:27:31;;;;;;;9.02;1.80;;;20.40;99.90;;;;;;5018113;28;20421;-84
2022/08/27 09:29:57;;;;;;;7.68;1.92;;;20.80;99.90;;;;;;5057028;28;20044;-85
2022/08/27 09:32:25;;;;;;;4.00;1.55;;;20.90;99.90;;;;;;5048136;28;20545;-84
2022/08/27 09:34:55;;;;;;;5.15;1.90;;;20.90;99.90;;;;;;5058884;28;20139;-85
2022/08/27 09:37:28;;;;;;;7.70;1.75;;;21.40;99.90;;;;;;5068761;28;20068;-85
2022/08/27 09:40:15;;;;;;;8.20;1.70;;;21.70;1.00;;;;;;5031558;28;20461;-84
2022/08/27 09:42:45;;;;;;;6.13;1.58;;;21.40;99.90;;;;;;5026123;28;20592;-84
2022/08/27 09:45:19;;;;;;;4.88;1.50;;;20.40;99.90;;;;;;5024549;28;20043;-84
2022/08/27 09:48:06;;;;;;;7.10;1.75;;;20.30;99.90;;;;;;5065055;28;20134;-89
2022/08/27 09:50:40;;;;;;;7.30;1.50;;;20.50;99.90;;;;;;5024351;28;20044;-86
2022/08/27 09:53:34;;;;;;;6.82;1.70;;;20.50;99.90;;;;;;5057758;28;20051;-85
2022/08/27 09:56:02;;;;;;;3.53;1.25;;;20.50;99.90;;;;;;5028786;28;20433;-86
2022/08/27 09:58:59;;;;;;;6.78;1.75;;;20.60;99.90;;;;;;5028853;28;20136;-86
2022/08/27 10:01:29;;;;;;;9.82;1.58;;;20.60;99.90;;;;;;5046923;28;20099;-86
2022/08/27 10:04:13;;;;;;;6.28;1.63;;;20.60;99.90;;;;;;5051195;28;20158;-85
2022/08/27 10:06:45;;;;;;;4.78;1.30;;;20.80;99.90;;;;;;5053604;28;20076;-86
2022/08/27 10:09:40;;;;;;;4.72;1.50;;;20.70;1.00;;;;;;5016189;28;20053;-87
2022/08/27 10:12:22;;;;;;;7.03;1.60;;;20.80;99.90;;;;;;5013671;28;20037;-87
2022/08/27 10:14:57;;;;;;;7.88;1.58;;;20.50;99.90;;;;;;5043184;28;20504;-87
2022/08/27 10:17:31;;;;;;;3.70;1.50;;;20.70;99.90;;;;;;5067794;28;20044;-87
2022/08/27 10:20:13;;;;;;;4.45;1.30;;;21.10;99.90;;;;;;5034233;28;20226;-87
2022/08/27 10:22:49;;;;;;;4.05;1.33;;;21.60;99.90;;;;;;5027014;28;20064;-87
2022/08/27 10:25:45;;;;;;;4.90;1.20;;;21.70;99.90;;;;;;5074157;28;20505;-87
2022/08/27 10:28:35;;;;;;;6.07;1.42;;;21.30;99.90;;;;;;5068383;28;20042;-87
2022/08/27 10:31:22;;;;;;;6.90;1.70;;;21.10;99.90;;;;;;5057812;28;20044;-88
2022/08/27 10:33:57;;;;;;;5.55;1.48;;;20.80;1.00;;;;;;5056540;28;20124;-87
2022/08/27 10:37:04;;;;;;;6.18;1.30;;;20.20;99.90;;;;;;5077103;28;20139;-88
2022/08/27 10:39:55;;;;;;;5.80;1.23;;;20.20;99.90;;;;;;5054548;28;20063;-87
2022/08/27 10:42:34;;;;;;;5.35;1.50;;;20.10;99.90;;;;;;5052113;28;20127;-88
2022/08/27 10:45:07;;;;;;;7.15;1.60;;;20.30;1.00;;;;;;5058622;28;20245;-87
2022/08/27 10:48:00;;;;;;;7.28;1.42;;;20.50;1.00;;;;;;5069206;28;20041;-88
2022/08/27 10:50:31;;;;;;;7.18;1.30;;;20.40;99.90;;;;;;5023086;28;20038;-88
2022/08/27 10:53:30;;;;;;;11.70;1.73;;;20.60;1.00;;;;;;5022417;28;20492;-87
2022/08/27 10:56:11;;;;;;;6.20;1.30;;;20.90;99.90;;;;;;5054459;28;20053;-88
2022/08/27 10:58:43;;;;;;;6.65;1.40;;;21.00;99.90;;;;;;5066288;28;20049;-86
2022/08/27 11:01:40;;;;;;;4.20;1.30;;;21.00;1.00;;;;;;5065459;28;20211;-87
2022/08/27 11:04:20;;;;;;;5.18;1.40;;;20.60;99.90;;;;;;5049500;28;20127;-87
2022/08/27 11:06:57;;;;;;;4.03;1.10;;;20.70;99.90;;;;;;5023953;28;20052;-87
2022/08/27 11:09:52;;;;;;;6.93;1.77;;;20.70;99.90;;;;;;5075474;28;20528;-87
2022/08/27 11:12:25;;;;;;;4.72;1.83;;;20.80;99.90;;;;;;5052926;28;20071;-87
2022/08/27 11:15:04;;;;;;;7.53;1.40;;;21.40;99.90;;;;;;5079685;28;20106;-87
2022/08/27 11:17:38;;;;;;;5.43;1.10;;;21.80;99.90;;;;;;5014866;28;20108;-87
2022/08/27 11:20:12;;;;;;;5.45;1.45;;;22.20;85.70;;;;;;5052814;28;20033;-86
2022/08/27 11:22:55;;;;;;;4.80;1.65;;;23.00;99.90;;;;;;5017835;28;20041;-87
2022/08/27 11:25:20;;;;;;;4.47;1.27;;;23.80;71.70;;;;;;5044680;28;20409;-86
2022/08/27 11:27:50;;;;;;;5.22;1.30;;;22.90;1.00;;;;;;5044388;28;20037;-87
2022/08/27 11:30:28;;;;;;;7.35;1.75;;;22.00;67.60;;;;;;5021130;28;20489;-87
2022/08/27 11:33:09;;;;;;;4.45;1.05;;;21.50;99.90;;;;;;5050640;28;20544;-86
2022/08/27 11:36:10;;;;;;;5.22;1.40;;;21.30;99.90;;;;;;5069487;28;20299;-86
2022/08/27 11:38:46;;;;;;;7.47;1.40;;;21.10;99.90;;;;;;5046746;28;20052;-86
2022/08/27 11:41:47;;;;;;;7.78;1.63;;;21.20;99.90;;;;;;5046670;28;20052;-87
2022/08/27 11:44:15;;;;;;;5.75;1.40;;;21.90;99.90;;;;;;5026549;28;20049;-88
2022/08/27 11:46:52;;;;;;;5.70;1.70;;;22.00;87.80;;;;;;5025825;28;20348;-86
2022/08/27 11:49:49;;;;;;;6.25;1.50;;;22.10;64.30;;;;;;5047450;28;20321;-86
2022/08/27 11:52:33;;;;;;;3.53;1.35;;;22.50;4.90;;;;;;5053808;28;20053;-86
2022/08/27 11:55:11;;;;;;;5.55;1.52;;;23.60;25.60;;;;;;5021502;28;20400;-86
2022/08/27 11:57:38;;;;;;;5.03;1.42;;;23.70;1.00;;;;;;5054837;28;20553;-86
2022/08/27 12:00:29;;;;;;;6.70;1.48;;;23.00;99.90;;;;;;5050676;28;20041;-86
2022/08/27 12:03:07;;;;;;;5.13;1.25;;;22.80;99.90;;;;;;5062566;28;20136;-86
2022/08/27 12:05:48;;;;;;;7.30;1.00;;;22.50;99.90;;;;;;5019888;28;20163;-86
2022/08/27 12:08:20;;;;;;;3.97;1.10;;;23.00;99.90;;;;;;5073656;28;20045;-86
2022/08/27 12:10:55;;;;;;;4.93;1.00;;;23.00;99.90;;;;;;5054318;28;20043;-87
2022/08/27 12:13:40;;;;;;;6.85;1.38;;;23.30;99.90;;;;;;5060526;28;20527;-86
2022/08/27 12:16:12;;;;;;;;;;;23.80;99.90;;;;;;5040337;28;20045;-87
2022/08/27 12:18:44;;;;;;;5.35;1.17;;;23.60;99.90;;;;;;5066472;28;19959;-88
2022/08/27 12:21:19;;;;;;;3.05;1.10;;;22.40;99.90;;;;;;5053881;28;20095;-86
2022/08/27 12:23:54;;;;;;;5.00;1.20;;;22.20;99.90;;;;;;5075071;28;20024;-85
2022/08/27 12:26:33;;;;;;;6.80;1.63;;;22.10;99.90;;;;;;5049706;28;20043;-87
2022/08/27 12:29:28;;;;;;;4.80;1.25;;;22.60;99.90;;;;;;5035842;28;20134;-86
2022/08/27 12:46:48;;;;;;;3.58;1.10;;;21.80;99.90;;;;;;5035095;28;20064;-86
2022/08/27 12:49:24;;;;;;;5.55;1.40;;;21.50;99.90;;;;;;5041126;28;20029;-86
2022/08/27 12:51:52;;;;;;;3.88;1.20;;;22.00;99.90;;;;;;5020971;28;20130;-86
2022/08/27 12:54:50;;;;;;;4.35;1.02;;;23.10;99.90;;;;;;5049552;28;20257;-85
2022/08/27 12:57:29;;;;;;;4.57;1.20;;;23.10;99.90;;;;;;5069115;28;20128;-85
2022/08/27 13:00:13;;;;;;;4.68;1.55;;;21.80;99.90;;;;;;5053337;28;20092;-86
2022/08/27 13:03:05;;;;;;;5.95;1.25;;;22.00;99.90;;;;;;5061197;28;20052;-86
2022/08/27 13:05:41;;;;;;;4.38;1.13;;;22.40;99.90;;;;;;5018864;28;20236;-85
2022/08/27 13:08:27;;;;;;;3.17;0.95;;;22.30;99.90;;;;;;5022067;28;20528;-87
2022/08/27 13:10:53;;;;;;;8.77;1.33;;;22.90;99.90;;;;;;5060595;28;20354;-86
2022/08/27 13:13:22;;;;;;;6.60;1.38;;;22.50;99.90;;;;;;5043276;28;20036;-86
2022/08/27 13:15:54;;;;;;;2.85;0.90;;;23.00;99.90;;;;;;5057772;28;20043;-86
2022/08/27 13:18:20;;;;;;;4.05;1.25;;;22.90;99.90;;;;;;5021219;28;20207;-86
2022/08/27 13:20:48;;;;;;;4.15;1.00;;;22.90;99.90;;;;;;5028387;28;20036;-86
2022/08/27 13:23:21;;;;;;;5.15;1.38;;;22.40;99.90;;;;;;5047237;28;20175;-86
2022/08/27 13:25:58;;;;;;;12.80;1.52;;;23.30;99.90;;;;;;5054082;28;20041;-85
2022/08/27 13:28:25;;;;;;;6.05;1.00;;;23.40;99.90;;;;;;5065442;28;20392;-86
2022/08/27 13:30:52;;;;;;;2.75;0.95;;;22.60;99.90;;;;;;5069486;28;20041;-85